Time;durP1;ratioP1;P1;durP2;ratioP2;P2;SDS_P1;SDS_P2;PMS_P1;PMS_P2;Temp;Humidity;BMP_temperature;BMP_pressure;BME280_temperature;BME280_humidity;BME280_pressure;Samples;Min_cycle;Max_cycle;Signal;HPM_P1;HPM_P2
2023/04/19 06:20:06;;;;;;;;;0.00;0.00;;;;;;;;6063390;22;51947;-69
2023/04/19 06:22:32;;;;;;;;;1.00;1.00;;;;;;;;6231009;22;50087;-68
2023/04/19 06:24:57;;;;;;;;;0.00;0.00;;;;;;;;6264126;22;49816;-70
2023/04/19 06:27:22;;;;;;;;;6.33;4.33;;;;;;;;6266381;22;49847;-68
2023/04/19 06:29:47;;;;;;;;;0.00;0.00;;;;;;;;6265110;22;50541;-68
2023/04/19 06:32:12;;;;;;;;;3.00;3.00;;;;;;;;6265110;22;50049;-68
2023/04/19 06:34:37;;;;;;;;;0.00;0.00;;;;;;;;6265161;22;49850;-67
2023/04/19 06:37:03;;;;;;;;;0.00;0.00;;;;;;;;6264931;22;49981;-68
2023/04/19 06:39:28;;;;;;;;;3.00;3.00;;;;;;;;6265604;22;50233;-68
2023/04/19 06:41:53;;;;;;;;;2.50;0.00;;;;;;;;6264812;22;49960;-68
2023/04/19 06:44:18;;;;;;;;;0.00;0.00;;;;;;;;6265538;22;49554;-68
2023/04/19 06:46:44;;;;;;;;;2.25;2.25;;;;;;;;6212654;22;49561;-68
2023/04/19 06:49:09;;;;;;;;;0.25;0.25;;;;;;;;6263485;22;50726;-68
2023/04/19 06:51:34;;;;;;;;;5.25;5.25;;;;;;;;6265988;22;49708;-69
2023/04/19 06:54:00;;;;;;;;;0.00;0.00;;;;;;;;6265730;22;49725;-68
2023/04/19 06:56:46;;;;;;;;;0.33;0.33;;;;;;;;6266432;22;49913;-68
2023/04/19 06:59:12;;;;;;;;;0.75;0.75;;;;;;;;6237134;22;52233;-69
2023/04/19 07:01:38;;;;;;;;;0.00;0.00;;;;;;;;6264439;22;49630;-67
2023/04/19 07:04:04;;;;;;;;;0.00;0.00;;;;;;;;6265787;22;49702;-68
2023/04/19 07:06:30;;;;;;;;;0.00;0.00;;;;;;;;6264752;22;49979;-69
2023/04/19 07:08:55;;;;;;;;;0.00;0.00;;;;;;;;6237776;22;51841;-69
2023/04/19 07:11:20;;;;;;;;;1.00;1.00;;;;;;;;6264905;22;49701;-68
2023/04/19 07:13:45;;;;;;;;;0.00;0.00;;;;;;;;6265291;22;49697;-69
2023/04/19 07:16:11;;;;;;;;;5.33;5.33;;;;;;;;6262904;22;49627;-68
2023/04/19 07:18:36;;;;;;;;;0.00;0.00;;;;;;;;6263542;22;50690;-68
2023/04/19 07:21:01;;;;;;;;;0.67;0.00;;;;;;;;6263768;22;50083;-68
2023/04/19 07:23:26;;;;;;;;;0.50;0.50;;;;;;;;6237962;22;49599;-68
2023/04/19 07:25:52;;;;;;;;;0.00;0.00;;;;;;;;6266066;22;49907;-68
2023/04/19 07:28:17;;;;;;;;;0.00;0.00;;;;;;;;6263724;22;50494;-68
2023/04/19 07:30:44;;;;;;;;;0.00;0.00;;;;;;;;6265075;22;49540;-68
2023/04/19 07:33:10;;;;;;;;;1.50;0.00;;;;;;;;6264237;22;49693;-68
2023/04/19 07:35:37;;;;;;;;;0.00;0.00;;;;;;;;6264919;22;50013;-68
2023/04/19 07:38:02;;;;;;;;;1.00;1.00;;;;;;;;6265171;22;50729;-68
2023/04/19 07:40:28;;;;;;;;;2.67;2.67;;;;;;;;6265481;22;50011;-69
2023/04/19 07:42:54;;;;;;;;;0.75;0.75;;;;;;;;6264778;22;49708;-68
2023/04/19 07:45:19;;;;;;;;;2.00;2.00;;;;;;;;6265156;22;49660;-69
2023/04/19 07:47:44;;;;;;;;;0.00;0.00;;;;;;;;6264856;22;50520;-68
2023/04/19 07:50:09;;;;;;;;;4.50;1.00;;;;;;;;6263724;22;50132;-67
2023/04/19 07:52:35;;;;;;;;;2.25;2.00;;;;;;;;6264928;22;50037;-67
2023/04/19 07:55:00;;;;;;;;;0.50;0.00;;;;;;;;6265819;22;50335;-67
2023/04/19 07:57:25;;;;;;;;;0.00;0.00;;;;;;;;6263642;22;50386;-67
2023/04/19 07:59:53;;;;;;;;;0.00;0.00;;;;;;;;6265521;22;49851;-68
2023/04/19 08:02:18;;;;;;;;;1.00;1.00;;;;;;;;6265339;22;49741;-67
2023/04/19 08:04:44;;;;;;;;;4.25;3.50;;;;;;;;6264845;22;49877;-68
2023/04/19 08:07:09;;;;;;;;;0.00;0.00;;;;;;;;6264830;22;51298;-68
2023/04/19 08:09:36;;;;;;;;;0.00;0.00;;;;;;;;6264759;22;49725;-75
2023/04/19 08:12:01;;;;;;;;;0.00;0.00;;;;;;;;6264992;22;49675;-69
2023/04/19 08:14:27;;;;;;;;;9.00;2.00;;;;;;;;6265343;22;49958;-69
2023/04/19 08:16:52;;;;;;;;;23.33;22.00;;;;;;;;6265224;22;49735;-68
2023/04/19 08:19:17;;;;;;;;;0.25;0.00;;;;;;;;6265183;22;49675;-69
2023/04/19 08:21:42;;;;;;;;;10.00;7.67;;;;;;;;6264561;22;49774;-69
2023/04/19 08:24:07;;;;;;;;;1.00;1.00;;;;;;;;6264807;22;50143;-69
2023/04/19 08:26:32;;;;;;;;;0.00;0.00;;;;;;;;6264919;22;50515;-69
2023/04/19 08:28:58;;;;;;;;;3.67;1.67;;;;;;;;6265073;22;49695;-69
2023/04/19 08:31:23;;;;;;;;;1.00;1.00;;;;;;;;6264990;22;49803;-69
2023/04/19 08:33:48;;;;;;;;;0.00;0.00;;;;;;;;6264316;22;49601;-69
2023/04/19 08:36:13;;;;;;;;;1.67;1.67;;;;;;;;6263374;22;50726;-68
2023/04/19 08:38:40;;;;;;;;;0.00;0.00;;;;;;;;6262851;22;49711;-68
2023/04/19 08:41:05;;;;;;;;;0.25;0.25;;;;;;;;6262776;22;49651;-69
2023/04/19 08:43:34;;;;;;;;;1.00;1.00;;;;;;;;6264539;22;49640;-69
2023/04/19 08:46:00;;;;;;;;;7.00;4.50;;;;;;;;6263889;22;50831;-69
2023/04/19 08:48:26;;;;;;;;;0.00;0.00;;;;;;;;6264508;22;49864;-67
2023/04/19 08:50:51;;;;;;;;;1.00;1.00;;;;;;;;6265063;22;49827;-70
2023/04/19 08:53:17;;;;;;;;;0.00;0.00;;;;;;;;6265415;22;49536;-68
2023/04/19 08:55:42;;;;;;;;;0.00;0.00;;;;;;;;6264517;22;50546;-68
2023/04/19 08:58:07;;;;;;;;;0.00;0.00;;;;;;;;6265154;22;50056;-68
2023/04/19 09:00:33;;;;;;;;;2.50;0.00;;;;;;;;6264397;22;49613;-68
2023/04/19 09:02:59;;;;;;;;;0.00;0.00;;;;;;;;6265050;22;49967;-68
2023/04/19 09:05:24;;;;;;;;;0.00;0.00;;;;;;;;6264767;22;50457;-68
2023/04/19 09:07:49;;;;;;;;;3.25;3.25;;;;;;;;6264362;22;49694;-69
2023/04/19 09:10:16;;;;;;;;;3.25;0.75;;;;;;;;6262469;22;49946;-69
2023/04/19 09:12:42;;;;;;;;;0.00;0.00;;;;;;;;6265160;22;50074;-68
2023/04/19 09:15:08;;;;;;;;;0.00;0.00;;;;;;;;6262490;22;50548;-68
2023/04/19 09:17:36;;;;;;;;;1.00;0.25;;;;;;;;6264465;22;50046;-69
2023/04/19 09:20:03;;;;;;;;;0.00;0.00;;;;;;;;6263869;22;50128;-67
2023/04/19 09:22:29;;;;;;;;;0.00;0.00;;;;;;;;6263763;22;49658;-68
2023/04/19 09:24:54;;;;;;;;;3.50;2.50;;;;;;;;6264125;22;50292;-68
2023/04/19 09:27:27;;;;;;;;;2.75;2.25;;;;;;;;6264288;22;49761;-68
2023/04/19 09:29:54;;;;;;;;;0.50;0.50;;;;;;;;6263127;22;50064;-69
2023/04/19 09:32:19;;;;;;;;;0.00;0.00;;;;;;;;6264090;22;49594;-68
2023/04/19 09:34:49;;;;;;;;;0.00;0.00;;;;;;;;6262315;22;50666;-69
2023/04/19 09:37:15;;;;;;;;;0.50;0.50;;;;;;;;6264407;22;49693;-69
2023/04/19 09:39:40;;;;;;;;;0.00;0.00;;;;;;;;6264210;22;49550;-68
2023/04/19 09:42:06;;;;;;;;;2.25;1.00;;;;;;;;6264223;22;50060;-70
2023/04/19 09:44:32;;;;;;;;;1.00;1.00;;;;;;;;6263631;22;49712;-68
2023/04/19 09:46:57;;;;;;;;;0.00;0.00;;;;;;;;6264277;22;49742;-68
2023/04/19 09:49:23;;;;;;;;;0.00;0.00;;;;;;;;6263749;22;49629;-68
2023/04/19 09:51:50;;;;;;;;;4.00;4.00;;;;;;;;6264262;22;49640;-68
2023/04/19 09:54:16;;;;;;;;;0.00;0.00;;;;;;;;6263809;22;50499;-69
2023/04/19 09:56:42;;;;;;;;;0.00;0.00;;;;;;;;6265412;22;49943;-69
2023/04/19 09:59:07;;;;;;;;;4.00;2.50;;;;;;;;6265359;22;49547;-68
2023/04/19 10:01:34;;;;;;;;;0.00;0.00;;;;;;;;6264365;22;49967;-68
2023/04/19 10:03:59;;;;;;;;;0.00;0.00;;;;;;;;6265258;22;50642;-68
2023/04/19 10:06:25;;;;;;;;;0.25;0.25;;;;;;;;6265022;22;49916;-68
2023/04/19 10:08:52;;;;;;;;;3.50;2.00;;;;;;;;6263917;22;49693;-68
2023/04/19 10:11:21;;;;;;;;;0.00;0.00;;;;;;;;6265536;22;50013;-68
2023/04/19 10:13:47;;;;;;;;;0.00;0.00;;;;;;;;6261344;22;50512;-68
2023/04/19 10:16:14;;;;;;;;;2.25;2.00;;;;;;;;6265058;22;50001;-68
2023/04/19 10:18:40;;;;;;;;;0.00;0.00;;;;;;;;6265616;22;49713;-67
2023/04/19 10:21:06;;;;;;;;;0.00;0.00;;;;;;;;6265594;22;49775;-68
2023/04/19 10:23:32;;;;;;;;;0.00;0.00;;;;;;;;6265121;22;50562;-68
2023/04/19 10:25:58;;;;;;;;;11.00;11.00;;;;;;;;6264218;22;49951;-67
2023/04/19 10:28:23;;;;;;;;;0.00;0.00;;;;;;;;6264516;22;49601;-67
2023/04/19 10:30:57;;;;;;;;;0.75;0.75;;;;;;;;6265182;22;49629;-67
2023/04/19 10:33:23;;;;;;;;;2.00;2.00;;;;;;;;6237081;22;50966;-67
2023/04/19 10:35:49;;;;;;;;;2.00;2.00;;;;;;;;6265218;22;49978;-67
2023/04/19 10:38:15;;;;;;;;;3.75;0.50;;;;;;;;6264327;22;49739;-67
2023/04/19 10:40:59;;;;;;;;;4.00;1.50;;;;;;;;6236619;22;49971;-67
2023/04/19 10:43:34;;;;;;;;;0.00;0.00;;;;;;;;6264905;22;51319;-67
2023/04/19 10:46:12;;;;;;;;;5.00;4.00;;;;;;;;6264750;22;49739;-67
2023/04/19 10:48:39;;;;;;;;;1.00;0.00;;;;;;;;6264800;22;49785;-67
2023/04/19 10:51:10;;;;;;;;;0.00;0.00;;;;;;;;6265018;22;50070;-68
2023/04/19 10:53:44;;;;;;;;;3.00;3.00;;;;;;;;6264285;22;49976;-73
2023/04/19 10:56:09;;;;;;;;;6.00;1.00;;;;;;;;6265287;22;49892;-73
2023/04/19 10:58:53;;;;;;;;;1.50;1.50;;;;;;;;6264742;22;49656;-71
2023/04/19 11:01:38;;;;;;;;;0.00;0.00;;;;;;;;6266034;22;49900;-72
2023/04/19 11:04:04;;;;;;;;;7.25;5.75;;;;;;;;6265252;22;50344;-72
2023/04/19 11:06:29;;;;;;;;;0.00;0.00;;;;;;;;6265906;22;49923;-70
2023/04/19 11:08:55;;;;;;;;;2.00;2.00;;;;;;;;6265681;22;49587;-73
2023/04/19 11:11:21;;;;;;;;;0.00;0.00;;;;;;;;6265913;22;49966;-69
2023/04/19 11:13:46;;;;;;;;;0.75;0.75;;;;;;;;6237151;22;51892;-71
2023/04/19 11:16:11;;;;;;;;;0.00;0.00;;;;;;;;6265859;22;50036;-72
2023/04/19 11:18:37;;;;;;;;;2.00;2.00;;;;;;;;6265525;22;49622;-72
2023/04/19 11:21:02;;;;;;;;;0.00;0.00;;;;;;;;6264171;22;49664;-74
2023/04/19 11:23:27;;;;;;;;;2.00;1.00;;;;;;;;6266718;22;49686;-77
2023/04/19 11:25:54;;;;;;;;;0.33;0.33;;;;;;;;6266137;22;49808;-79
2023/04/19 11:28:20;;;;;;;;;1.00;1.00;;;;;;;;6263633;22;49831;-79
2023/04/19 11:30:46;;;;;;;;;0.00;0.00;;;;;;;;6265250;22;49611;-67
2023/04/19 11:33:11;;;;;;;;;0.00;0.00;;;;;;;;6265293;22;50360;-67
2023/04/19 11:35:36;;;;;;;;;0.00;0.00;;;;;;;;6265397;22;49610;-68
2023/04/19 11:38:03;;;;;;;;;11.00;7.75;;;;;;;;6265238;22;49890;-76
2023/04/19 11:40:28;;;;;;;;;5.25;5.25;;;;;;;;6265314;22;49598;-69
2023/04/19 11:42:55;;;;;;;;;0.00;0.00;;;;;;;;6265340;22;49656;-68
2023/04/19 11:45:24;;;;;;;;;1.00;0.00;;;;;;;;6265156;22;49799;-68
2023/04/19 11:47:50;;;;;;;;;1.00;1.00;;;;;;;;6263331;22;49594;-68
2023/04/19 11:50:30;;;;;;;;;0.00;0.00;;;;;;;;6265879;22;49999;-67
2023/04/19 11:52:55;;;;;;;;;0.00;0.00;;;;;;;;6264941;22;51561;-69
2023/04/19 11:55:21;;;;;;;;;0.00;0.00;;;;;;;;6262722;22;49606;-71
2023/04/19 11:57:46;;;;;;;;;0.50;0.50;;;;;;;;6264821;22;50010;-68
2023/04/19 12:00:13;;;;;;;;;1.00;1.00;;;;;;;;6264074;22;49598;-68
2023/04/19 12:02:38;;;;;;;;;0.00;0.00;;;;;;;;6265237;22;50814;-68
2023/04/19 12:05:07;;;;;;;;;0.00;0.00;;;;;;;;6263697;22;49902;-69
2023/04/19 12:07:32;;;;;;;;;1.00;1.00;;;;;;;;6265669;22;49873;-73
2023/04/19 12:10:06;;;;;;;;;2.33;2.33;;;;;;;;6265665;22;50055;-71
2023/04/19 12:12:31;;;;;;;;;0.00;0.00;;;;;;;;6265113;22;49641;-70
2023/04/19 12:14:57;;;;;;;;;0.00;0.00;;;;;;;;6232484;22;50095;-71
2023/04/19 12:17:22;;;;;;;;;4.75;1.50;;;;;;;;6258954;22;49956;-72
2023/04/19 12:19:47;;;;;;;;;0.00;0.00;;;;;;;;6265580;22;49967;-72
2023/04/19 12:22:13;;;;;;;;;1.00;1.00;;;;;;;;6262857;22;50646;-71
2023/04/19 12:24:39;;;;;;;;;1.50;1.50;;;;;;;;6262878;22;49720;-71
2023/04/19 12:27:05;;;;;;;;;0.00;0.00;;;;;;;;6263250;22;49785;-72
2023/04/19 12:29:30;;;;;;;;;0.00;0.00;;;;;;;;6262634;22;49858;-72
2023/04/19 12:31:55;;;;;;;;;0.00;0.00;;;;;;;;6208559;22;50145;-72
2023/04/19 12:34:20;;;;;;;;;6.00;3.67;;;;;;;;6234267;22;50215;-72
2023/04/19 12:36:46;;;;;;;;;0.00;0.00;;;;;;;;6262710;22;49658;-70
2023/04/19 12:39:12;;;;;;;;;0.00;0.00;;;;;;;;6262823;22;49981;-70
2023/04/19 12:41:37;;;;;;;;;0.00;0.00;;;;;;;;6261270;22;50231;-71
2023/04/19 12:44:02;;;;;;;;;2.33;2.33;;;;;;;;6263498;22;49817;-71
2023/04/19 12:46:27;;;;;;;;;1.00;0.00;;;;;;;;6234929;22;49662;-72
2023/04/19 12:48:52;;;;;;;;;6.33;4.00;;;;;;;;6261755;22;49949;-71
2023/04/19 12:51:18;;;;;;;;;0.00;0.00;;;;;;;;6235289;22;49640;-71
2023/04/19 12:53:49;;;;;;;;;0.00;0.00;;;;;;;;6261834;22;49869;-70
2023/04/19 12:56:16;;;;;;;;;1.50;1.00;;;;;;;;6262970;22;49926;-70
2023/04/19 12:58:41;;;;;;;;;2.50;1.00;;;;;;;;6263094;22;49981;-70
2023/04/19 13:01:06;;;;;;;;;0.75;0.75;;;;;;;;6259433;22;50732;-70
2023/04/19 13:03:35;;;;;;;;;0.00;0.00;;;;;;;;6260774;22;49784;-70
2023/04/19 13:06:00;;;;;;;;;0.00;0.00;;;;;;;;6260823;22;50059;-70
2023/04/19 13:08:25;;;;;;;;;0.25;0.25;;;;;;;;6261950;22;50433;-70
2023/04/19 13:10:50;;;;;;;;;1.00;1.00;;;;;;;;6261829;22;50016;-70
2023/04/19 13:13:15;;;;;;;;;0.00;0.00;;;;;;;;6261007;22;50175;-70
2023/04/19 13:15:41;;;;;;;;;4.67;3.33;;;;;;;;6262062;22;49602;-70
2023/04/19 13:18:06;;;;;;;;;1.00;1.00;;;;;;;;6260988;22;49975;-69
2023/04/19 13:20:31;;;;;;;;;0.75;0.75;;;;;;;;6233414;22;50065;-70
2023/04/19 13:22:56;;;;;;;;;3.00;3.00;;;;;;;;6260720;22;49975;-70
2023/04/19 13:25:21;;;;;;;;;0.00;0.00;;;;;;;;6260307;22;49710;-70
2023/04/19 13:27:47;;;;;;;;;0.00;0.00;;;;;;;;6262856;22;49595;-70
2023/04/19 13:30:12;;;;;;;;;0.00;0.00;;;;;;;;6262877;22;50391;-70
2023/04/19 13:32:37;;;;;;;;;0.00;0.00;;;;;;;;6261819;22;49644;-71
2023/04/19 13:35:03;;;;;;;;;0.00;0.00;;;;;;;;6261322;22;50025;-70
2023/04/19 13:37:28;;;;;;;;;0.00;0.00;;;;;;;;6262781;22;50277;-70
2023/04/19 13:39:53;;;;;;;;;1.00;1.00;;;;;;;;6261555;22;51320;-69
2023/04/19 13:42:19;;;;;;;;;0.00;0.00;;;;;;;;6260805;22;49962;-69
2023/04/19 13:44:44;;;;;;;;;1.00;1.00;;;;;;;;6262322;22;50017;-70
2023/04/19 13:47:09;;;;;;;;;0.00;0.00;;;;;;;;6263010;22;49724;-70
2023/04/19 13:49:35;;;;;;;;;1.00;1.00;;;;;;;;6232691;22;51779;-71
2023/04/19 13:52:00;;;;;;;;;0.00;0.00;;;;;;;;6261499;22;50053;-70
2023/04/19 13:54:25;;;;;;;;;0.00;0.00;;;;;;;;6262817;22;49856;-70
2023/04/19 13:56:50;;;;;;;;;0.50;0.50;;;;;;;;6264196;22;49788;-69
2023/04/19 13:59:15;;;;;;;;;0.67;0.67;;;;;;;;6262368;22;50049;-71
2023/04/19 14:01:41;;;;;;;;;2.33;1.33;;;;;;;;6264168;22;49857;-68
2023/04/19 14:04:06;;;;;;;;;0.00;0.00;;;;;;;;6264220;22;49848;-68
2023/04/19 14:06:31;;;;;;;;;0.00;0.00;;;;;;;;6264480;22;50289;-68
2023/04/19 14:08:56;;;;;;;;;0.00;0.00;;;;;;;;6263222;22;50448;-69
2023/04/19 14:11:23;;;;;;;;;0.00;0.00;;;;;;;;6263450;22;50021;-69
2023/04/19 14:13:49;;;;;;;;;2.00;0.50;;;;;;;;6262881;22;49673;-69
2023/04/19 14:16:14;;;;;;;;;0.00;0.00;;;;;;;;6264237;22;49570;-70
2023/04/19 14:18:39;;;;;;;;;0.00;0.00;;;;;;;;6262742;22;49598;-70
2023/04/19 14:21:04;;;;;;;;;0.00;0.00;;;;;;;;6263224;22;49670;-69
2023/04/19 14:23:30;;;;;;;;;0.00;0.00;;;;;;;;6263919;22;50029;-70
2023/04/19 14:25:55;;;;;;;;;0.00;0.00;;;;;;;;6263697;22;49532;-69
2023/04/19 14:28:20;;;;;;;;;0.00;0.00;;;;;;;;6263695;22;49608;-70
2023/04/19 14:30:45;;;;;;;;;1.00;1.00;;;;;;;;6261069;22;49639;-71
2023/04/19 14:33:10;;;;;;;;;0.00;0.00;;;;;;;;6263236;22;49526;-70
2023/04/19 14:35:36;;;;;;;;;0.00;0.00;;;;;;;;6261164;22;50183;-70
2023/04/19 14:38:01;;;;;;;;;0.25;0.25;;;;;;;;6259853;22;50257;-71
2023/04/19 14:40:26;;;;;;;;;0.75;0.25;;;;;;;;6259260;22;49764;-70
2023/04/19 14:42:52;;;;;;;;;0.00;0.00;;;;;;;;6261479;22;50144;-72
2023/04/19 14:45:17;;;;;;;;;0.00;0.00;;;;;;;;6262874;22;49558;-70
2023/04/19 14:47:42;;;;;;;;;1.50;0.25;;;;;;;;6261887;22;49844;-69
2023/04/19 14:50:08;;;;;;;;;0.00;0.00;;;;;;;;6264096;22;49932;-68
2023/04/19 14:52:33;;;;;;;;;0.00;0.00;;;;;;;;6262252;22;50034;-68
2023/04/19 14:54:58;;;;;;;;;0.25;0.25;;;;;;;;6235393;22;50002;-68
2023/04/19 14:57:24;;;;;;;;;0.00;0.00;;;;;;;;6263538;22;50455;-70
2023/04/19 14:59:56;;;;;;;;;1.00;1.00;;;;;;;;6264054;22;49697;-70
2023/04/19 15:02:21;;;;;;;;;0.00;0.00;;;;;;;;6262878;22;49875;-70
2023/04/19 15:04:46;;;;;;;;;0.00;0.00;;;;;;;;6264404;22;49585;-69
2023/04/19 15:07:11;;;;;;;;;0.00;0.00;;;;;;;;6264993;22;50420;-69
2023/04/19 15:09:37;;;;;;;;;0.00;0.00;;;;;;;;6265463;22;49816;-69
2023/04/19 15:12:02;;;;;;;;;0.00;0.00;;;;;;;;6263710;22;49851;-68
2023/04/19 15:14:27;;;;;;;;;0.00;0.00;;;;;;;;6265249;22;49561;-69
2023/04/19 15:16:52;;;;;;;;;0.00;0.00;;;;;;;;6262748;22;49924;-68
2023/04/19 15:19:18;;;;;;;;;1.00;1.00;;;;;;;;6265295;22;49892;-69
2023/04/19 15:21:43;;;;;;;;;0.00;0.00;;;;;;;;6263741;22;49824;-70
2023/04/19 15:24:08;;;;;;;;;0.00;0.00;;;;;;;;6265419;22;49709;-71
2023/04/19 15:26:34;;;;;;;;;0.00;0.00;;;;;;;;6262818;22;50831;-71
2023/04/19 15:28:59;;;;;;;;;0.00;0.00;;;;;;;;6263098;22;49825;-69
2023/04/19 15:31:24;;;;;;;;;1.00;1.00;;;;;;;;6236894;22;49927;-70
2023/04/19 15:33:50;;;;;;;;;0.00;0.00;;;;;;;;6265260;22;49869;-69
2023/04/19 15:36:15;;;;;;;;;0.00;0.00;;;;;;;;6263592;22;49685;-67
2023/04/19 15:38:40;;;;;;;;;0.00;0.00;;;;;;;;6237560;22;49780;-65
2023/04/19 15:41:06;;;;;;;;;0.67;0.67;;;;;;;;6264465;22;49972;-67
2023/04/19 15:43:31;;;;;;;;;0.00;0.00;;;;;;;;6266089;22;49582;-66
2023/04/19 15:45:56;;;;;;;;;0.00;0.00;;;;;;;;6264144;22;50382;-66
2023/04/19 15:48:21;;;;;;;;;0.00;0.00;;;;;;;;6265314;22;50019;-65
2023/04/19 15:50:47;;;;;;;;;0.00;0.00;;;;;;;;6265185;22;50137;-66
2023/04/19 15:53:12;;;;;;;;;0.00;0.00;;;;;;;;6264975;22;49944;-67
2023/04/19 15:55:38;;;;;;;;;0.00;0.00;;;;;;;;6263970;22;50298;-66
2023/04/19 15:58:03;;;;;;;;;0.00;0.00;;;;;;;;6264289;22;49780;-67
2023/04/19 16:00:29;;;;;;;;;0.00;0.00;;;;;;;;6263195;22;50175;-67
2023/04/19 16:02:54;;;;;;;;;0.00;0.00;;;;;;;;6264855;22;50266;-66
2023/04/19 16:05:19;;;;;;;;;0.00;0.00;;;;;;;;6265369;22;50233;-67
2023/04/19 16:07:45;;;;;;;;;0.00;0.00;;;;;;;;6265441;22;49687;-66
2023/04/19 16:10:10;;;;;;;;;0.00;0.00;;;;;;;;6265540;22;50084;-66
2023/04/19 16:12:36;;;;;;;;;0.00;0.00;;;;;;;;6264880;22;49629;-66
2023/04/19 16:15:01;;;;;;;;;0.00;0.00;;;;;;;;6236709;22;50579;-64
2023/04/19 16:17:26;;;;;;;;;0.00;0.00;;;;;;;;6237193;22;49658;-65
2023/04/19 16:19:51;;;;;;;;;1.00;1.00;;;;;;;;6264540;22;49838;-65
2023/04/19 16:22:17;;;;;;;;;0.00;0.00;;;;;;;;6265366;22;49993;-65
2023/04/19 16:24:42;;;;;;;;;1.50;0.50;;;;;;;;6264240;22;49692;-66
2023/04/19 16:27:07;;;;;;;;;0.00;0.00;;;;;;;;6265026;22;49757;-66
2023/04/19 16:29:33;;;;;;;;;0.00;0.00;;;;;;;;6265519;22;49594;-66
2023/04/19 16:31:58;;;;;;;;;0.00;0.00;;;;;;;;6263709;22;50019;-65
2023/04/19 16:34:24;;;;;;;;;0.00;0.00;;;;;;;;6263933;22;50631;-65
2023/04/19 16:36:50;;;;;;;;;0.00;0.00;;;;;;;;6264379;22;49718;-66
2023/04/19 16:39:15;;;;;;;;;0.00;0.00;;;;;;;;6265216;22;49728;-65
2023/04/19 16:41:40;;;;;;;;;0.00;0.00;;;;;;;;6265302;22;49963;-66
2023/04/19 16:44:05;;;;;;;;;0.00;0.00;;;;;;;;6264840;22;50000;-68
2023/04/19 16:46:30;;;;;;;;;0.00;0.00;;;;;;;;6265273;22;49725;-67
2023/04/19 16:48:57;;;;;;;;;1.00;1.00;;;;;;;;6264530;22;49602;-67
2023/04/19 16:51:22;;;;;;;;;1.00;0.00;;;;;;;;6265263;22;49698;-67
2023/04/19 16:53:48;;;;;;;;;0.00;0.00;;;;;;;;6264411;22;50595;-67
2023/04/19 16:56:15;;;;;;;;;4.00;1.00;;;;;;;;6265086;22;49698;-66
2023/04/19 16:58:40;;;;;;;;;0.25;0.00;;;;;;;;6264418;22;50064;-67
2023/04/19 17:01:07;;;;;;;;;0.00;0.00;;;;;;;;6263611;22;49893;-66
2023/04/19 17:03:33;;;;;;;;;0.00;0.00;;;;;;;;6264192;22;49937;-66
2023/04/19 17:05:59;;;;;;;;;0.00;0.00;;;;;;;;6263723;22;49686;-66
2023/04/19 17:08:25;;;;;;;;;0.00;0.00;;;;;;;;6263460;22;50033;-66
2023/04/19 17:10:50;;;;;;;;;0.00;0.00;;;;;;;;6264556;22;49894;-66
2023/04/19 17:13:15;;;;;;;;;0.00;0.00;;;;;;;;6264242;22;52467;-65
2023/04/19 17:15:40;;;;;;;;;3.00;3.00;;;;;;;;6264333;22;50089;-71
2023/04/19 17:18:06;;;;;;;;;0.00;0.00;;;;;;;;6265274;22;50164;-66
2023/04/19 17:20:31;;;;;;;;;0.00;0.00;;;;;;;;6263851;22;49915;-66
2023/04/19 17:22:56;;;;;;;;;0.00;0.00;;;;;;;;6263928;22;49801;-67
2023/04/19 17:25:21;;;;;;;;;5.00;3.67;;;;;;;;6264418;22;49760;-67
2023/04/19 17:27:46;;;;;;;;;0.00;0.00;;;;;;;;6264372;22;50010;-68
2023/04/19 17:30:12;;;;;;;;;0.00;0.00;;;;;;;;6265319;22;50009;-77
2023/04/19 17:32:37;;;;;;;;;0.00;0.00;;;;;;;;6264528;22;50551;-66
2023/04/19 17:35:03;;;;;;;;;0.00;0.00;;;;;;;;6263651;22;50101;-70
2023/04/19 17:37:28;;;;;;;;;0.00;0.00;;;;;;;;6236990;22;49697;-70
2023/04/19 17:39:54;;;;;;;;;1.00;0.00;;;;;;;;6264744;22;49927;-71
2023/04/19 17:42:19;;;;;;;;;0.00;0.00;;;;;;;;6264613;22;50231;-67
2023/04/19 17:44:44;;;;;;;;;0.00;0.00;;;;;;;;6263812;22;49970;-66
2023/04/19 17:47:09;;;;;;;;;1.00;1.00;;;;;;;;6264630;22;49551;-67
2023/04/19 17:49:35;;;;;;;;;0.00;0.00;;;;;;;;6265158;22;49934;-69
2023/04/19 17:52:00;;;;;;;;;1.00;1.00;;;;;;;;6263676;22;49933;-68
2023/04/19 17:54:25;;;;;;;;;0.00;0.00;;;;;;;;6264575;22;49671;-68
2023/04/19 17:56:51;;;;;;;;;1.00;0.00;;;;;;;;6236602;22;49533;-74
2023/04/19 17:59:16;;;;;;;;;0.00;0.00;;;;;;;;6264768;22;49471;-72
2023/04/19 18:01:41;;;;;;;;;0.00;0.00;;;;;;;;6264716;22;50409;-71
2023/04/19 18:04:07;;;;;;;;;0.00;0.00;;;;;;;;6264738;22;50215;-72
2023/04/19 18:06:32;;;;;;;;;0.00;0.00;;;;;;;;6236729;22;49825;-71
2023/04/19 18:08:57;;;;;;;;;0.00;0.00;;;;;;;;6264901;22;49942;-69
2023/04/19 18:11:22;;;;;;;;;0.00;0.00;;;;;;;;6263783;22;51163;-69
2023/04/19 18:13:48;;;;;;;;;0.00;0.00;;;;;;;;6265329;22;49624;-71
2023/04/19 18:16:14;;;;;;;;;6.00;3.00;;;;;;;;6265893;22;49937;-71
2023/04/19 18:18:39;;;;;;;;;0.00;0.00;;;;;;;;6265266;22;49637;-69
2023/04/19 18:21:05;;;;;;;;;0.00;0.00;;;;;;;;6263320;22;50495;-69
2023/04/19 18:23:30;;;;;;;;;0.00;0.00;;;;;;;;6263953;22;50316;-70
2023/04/19 18:25:58;;;;;;;;;0.00;0.00;;;;;;;;6264008;22;49942;-69
2023/04/19 18:28:24;;;;;;;;;0.00;0.00;;;;;;;;6264465;22;49585;-69
2023/04/19 18:30:50;;;;;;;;;0.00;0.00;;;;;;;;6265310;22;50332;-69
2023/04/19 18:33:15;;;;;;;;;0.00;0.00;;;;;;;;6264969;22;49753;-69
2023/04/19 18:35:40;;;;;;;;;0.00;0.00;;;;;;;;6265625;22;49550;-70
2023/04/19 18:38:05;;;;;;;;;0.00;0.00;;;;;;;;6265369;22;49563;-69
2023/04/19 18:40:31;;;;;;;;;0.00;0.00;;;;;;;;6265645;22;50613;-69
2023/04/19 18:42:56;;;;;;;;;0.00;0.00;;;;;;;;6265295;22;49789;-69
2023/04/19 18:45:21;;;;;;;;;0.00;0.00;;;;;;;;6264978;22;49713;-72
2023/04/19 18:47:47;;;;;;;;;0.00;0.00;;;;;;;;6265125;22;49560;-71
2023/04/19 18:50:12;;;;;;;;;0.00;0.00;;;;;;;;6265057;22;50355;-71
2023/04/19 18:52:37;;;;;;;;;1.00;1.00;;;;;;;;6237931;22;49709;-72
2023/04/19 18:55:03;;;;;;;;;0.00;0.00;;;;;;;;6269875;22;50140;-73
2023/04/19 18:57:28;;;;;;;;;0.00;0.00;;;;;;;;6265701;22;49903;-73
2023/04/19 18:59:56;;;;;;;;;0.00;0.00;;;;;;;;6236741;22;50546;-74
2023/04/19 19:02:22;;;;;;;;;0.00;0.00;;;;;;;;6265579;22;49877;-75
2023/04/19 19:04:47;;;;;;;;;1.00;0.00;;;;;;;;6265520;22;49982;-76
2023/04/19 19:07:12;;;;;;;;;0.00;0.00;;;;;;;;6265339;22;49908;-74
2023/04/19 19:09:37;;;;;;;;;3.33;3.33;;;;;;;;6265249;22;50002;-72
2023/04/19 19:12:02;;;;;;;;;0.00;0.00;;;;;;;;6265687;22;49822;-72
2023/04/19 19:14:28;;;;;;;;;0.00;0.00;;;;;;;;6265642;22;49631;-76
2023/04/19 19:16:53;;;;;;;;;0.00;0.00;;;;;;;;6241640;22;49974;-71
2023/04/19 19:19:21;;;;;;;;;0.00;0.00;;;;;;;;6264309;22;49868;-70
2023/04/19 19:21:46;;;;;;;;;0.00;0.00;;;;;;;;6264157;22;49861;-71
2023/04/19 19:24:11;;;;;;;;;0.00;0.00;;;;;;;;6263852;22;50024;-74
2023/04/19 19:26:36;;;;;;;;;1.00;1.00;;;;;;;;6265584;22;49834;-71
2023/04/19 19:29:01;;;;;;;;;0.00;0.00;;;;;;;;6265436;22;50674;-72
2023/04/19 19:31:27;;;;;;;;;0.00;0.00;;;;;;;;6265597;22;49684;-70
2023/04/19 19:33:52;;;;;;;;;0.00;0.00;;;;;;;;6265586;22;49690;-69
2023/04/19 19:36:17;;;;;;;;;0.00;0.00;;;;;;;;6264838;22;50160;-70
2023/04/19 19:38:42;;;;;;;;;0.00;0.00;;;;;;;;6264130;22;51364;-69
2023/04/19 19:41:07;;;;;;;;;0.00;0.00;;;;;;;;6264116;22;50036;-70
2023/04/19 19:43:33;;;;;;;;;0.00;0.00;;;;;;;;6262842;22;50027;-69
2023/04/19 19:46:00;;;;;;;;;0.00;0.00;;;;;;;;6263006;22;49994;-70
2023/04/19 19:48:25;;;;;;;;;1.00;1.00;;;;;;;;6263639;22;50255;-70
2023/04/19 19:50:50;;;;;;;;;0.50;0.50;;;;;;;;6262960;22;50178;-69
2023/04/19 19:53:16;;;;;;;;;0.00;0.00;;;;;;;;6263604;22;50136;-69
2023/04/19 19:55:41;;;;;;;;;0.00;0.00;;;;;;;;6264342;22;49978;-68
2023/04/19 19:58:06;;;;;;;;;0.00;0.00;;;;;;;;6263914;22;49744;-69
2023/04/19 20:00:32;;;;;;;;;0.00;0.00;;;;;;;;6262529;22;49742;-68
2023/04/19 20:02:58;;;;;;;;;0.00;0.00;;;;;;;;6263588;22;50161;-68
2023/04/19 20:05:23;;;;;;;;;0.00;0.00;;;;;;;;6264411;22;49988;-69
2023/04/19 20:07:48;;;;;;;;;0.00;0.00;;;;;;;;6262093;22;50498;-69
2023/04/19 20:10:13;;;;;;;;;0.00;0.00;;;;;;;;6261794;22;50211;-70
2023/04/19 20:12:40;;;;;;;;;0.00;0.00;;;;;;;;6263054;22;49600;-69
2023/04/19 20:15:06;;;;;;;;;0.00;0.00;;;;;;;;6263795;22;49881;-69
2023/04/19 20:17:31;;;;;;;;;0.50;0.50;;;;;;;;6261532;22;49881;-68
2023/04/19 20:19:57;;;;;;;;;1.00;1.00;;;;;;;;6262029;22;50365;-68
2023/04/19 20:22:22;;;;;;;;;0.00;0.00;;;;;;;;6261807;22;49887;-69
2023/04/19 20:24:47;;;;;;;;;0.00;0.00;;;;;;;;6262293;22;50134;-68
2023/04/19 20:27:12;;;;;;;;;0.00;0.00;;;;;;;;6261066;22;50817;-68
2023/04/19 20:29:38;;;;;;;;;0.00;0.00;;;;;;;;6260958;22;49775;-68
2023/04/19 20:32:03;;;;;;;;;0.00;0.00;;;;;;;;6262440;22;49863;-69
2023/04/19 20:34:28;;;;;;;;;0.50;0.50;;;;;;;;6258991;22;49626;-69
2023/04/19 20:36:54;;;;;;;;;1.50;0.50;;;;;;;;6229598;22;50946;-68
2023/04/19 20:39:19;;;;;;;;;0.00;0.00;;;;;;;;6258133;22;50015;-68
2023/04/19 20:41:47;;;;;;;;;0.00;0.00;;;;;;;;6260367;22;50131;-69
2023/04/19 20:44:15;;;;;;;;;2.50;2.50;;;;;;;;6262443;22;50201;-68
2023/04/19 20:46:41;;;;;;;;;0.00;0.00;;;;;;;;6262886;22;50747;-68
2023/04/19 20:49:07;;;;;;;;;0.00;0.00;;;;;;;;6263448;22;50123;-68
2023/04/19 20:51:32;;;;;;;;;1.00;1.00;;;;;;;;6264452;22;49491;-70
2023/04/19 20:53:57;;;;;;;;;1.00;1.00;;;;;;;;6262873;22;50387;-69